Barbados Meteorological Services
Auto gathered TAF list
Powered by Apparatus software
For Flight AMF7106
Contact Number 1-(246)-535-0021/2/3/4/5/6
WEB: http://www.barbadosweather.org

**********************************************

2021/12/05 06:57
TAF TVSA 050500Z 0506/0606 07010KT 9999 SCT018
TEMPO 0506/0512 SHRA BKN015


**********************************************
2021/12/06 18:22
TAF TTPP 061600Z 0618/0718 10012KT 9999 SCT020
BECMG 0700/0702 09005KT 9999 FEW016
BECMG 0712/0714 11010KT 9999 SCT020


**********************************************
2021/12/06 18:22
TAF TTCP 061600Z 0618/0718 10012KT 9999 FEW020
BECMG 0700/0702 08008KT 9999 FEW016
BECMG 0712/0714 11012KT 9999 FEW020


**********************************************
2021/12/06 18:42
TAF TNCM 061740Z 0618/0718 08013KT P6SM VCSH SCT018 SCT030


**********************************************
2021/12/06 18:15
TAF TLPL 061715Z 0618/0718 08020KT 9999 SCT026
TEMPO 0706/0718 SHRA= TAF TLPC 061715Z 0618/0718 08012G22KT 9999 SCT026
TEMPO 0706/0718 SHRA


**********************************************
2021/12/06 18:15
TAF TAF TLPC 061715Z 0618/0718 08012G22KT 9999 SCT026
TEMPO 0706/0718 SHRA


**********************************************
2021/12/06 18:42
TAF TJSJ 061740Z 0618/0718 08015G25KT P6SM VCSH FEW026 SCT045 SCT060
FM062300 09009KT P6SM SCT025
FM071300 07015G25KT P6SM VCSH SCT025 SCT035


**********************************************
2021/12/06 18:42
TAF TJBQ 061740Z 0618/0718 08016G25KT P6SM VCSH SCT025 SCT050
FM062300 10007KT P6SM FEW030
FM071300 08015G25KT P6SM FEW035
AMD NOT SKED 0702/0711


**********************************************
2021/12/06 18:22
TAF TGPY 061600Z 0618/0718 08020KT 9999 FEW020


**********************************************
2021/12/06 18:54
TAF TAF TFFR 061700Z 0618/0718 09012KT 9999 SCT030 SCT070 PROB30
TEMPO 0618/0621 10015G25KT 4000 SHRA SCT025TCU
TEMPO 0702/0710 4000 SHRA SCT025TCU
TEMPO 0710/0715 3000 SHRA FEW011CB BKN018TCU


**********************************************
2021/12/06 18:51
TAF TAF TFFF 061700Z 0618/0718 10014KT 9999 SCT025
TEMPO 0618/0621 09018G30KT PROB30
TEMPO 0621/0703 4000 SHRA SCT025TCU
TEMPO 0703/0715 2000 SHRA FEW012CB BKN018TCU


**********************************************
2021/12/06 18:31
TAF TDPD 061700Z 0618/0718 09013KT 9999 SCT018


**********************************************
2021/12/06 18:31
TAF TBPB 061700Z 0618/0718 08022KT 9999 SCT018= TAF TVSA 061700Z 0618/0718 07015KT 9999 SCT018


**********************************************
2021/12/06 18:12
TAF TAF TAPA 061700Z 0618/0718 08012KT 9999 SCT018 PROB40
TEMPO 0618/0710 SHRA


**********************************************
2021/12/06 18:30
TAF TAF SYCJ 061700Z 0618/0718 07006KT 5000 TSRA SCT015CB BKN016 BKN034
BECMG 0700/0703 06004KT 9999 BKN014 BKN090
BECMG 0705/0706 04004KT 3000 +TSRA SCT012CB BKN014 OVC032


**********************************************
2021/12/06 18:54
TAF SVMI 061600Z 0618/0718 09005KT 9999 SCT016 TX33/0618Z TN22/0708Z
BECMG 0616/0622 00000KT 9999 SCT016 SCT030


**********************************************
2021/12/06 18:21
TAF SOCA 061700Z 0618/0718 08010KT 9999 SCT020 PROB30
TEMPO 0618/0621 3000 SHRA SCT012CB BKN015TCU
BECMG 0620/0622 VRB02KT PROB30
TEMPO 0704/0718 3000 SHRA BKN020TCU
BECMG 0713/0715 08010KT


**********************************************
2021/12/06 18:14
TAF SMJP 061600Z 0618/0718 02008KT 9999 SCT010 BKN020 TX30/0716Z TN23/0709Z
TEMPO 0618/0712 5000 SHRA
TEMPO 0618/0621 3000 TSRA SCT008 FEW015CB BKN020
TEMPO 0716/0718 4000 SHRA TSRA SCT010 FEW015CB SCT018


**********************************************
2021/12/06 18:24
TAF MYNN 061645Z 0618/0718 15012KT 9000 SHRA BKN020
FM070000 12005KT 9999 SCT020


**********************************************
2021/12/06 18:15
TAF MKJP 061715Z 0618/0718 13024KT 9999 FEW022
BECMG 0701/0703 35010KT
BECMG 0714/0716 14024KT


**********************************************